Norwood Memorial Airport Norwood US
ICAO: KOWD
IATA: OWD
Category: Medium
Scheduled Services: No

Elevation: 49 ft
TransAlt. 18000 ft.

Airport Communications:
BOSTON APP:124.1
ATIS:119.95
CLNC DEL:121.8
CTAF:126
BOSTON DEP:124.1
GND:121.8
TWR:126

KOWD Zoom In..

If you have problems with the map follow the link
https://www.worldairports.se/pages/airport.php?
ICAO=KOWD

Runways:

(A) RW 10 length 3995 ft width 75 ft
LOC 108.30 / hdg 104

(B) RW 17 length 4008 ft width 100 ft
LOC 108.30 / hdg 170

(C) RW 28 length 3995 ft width 75 ft
LOC 108.30 / hdg 284

(D) RW 35 length 4008 ft width 100 ft
LOC 108.30 / hdg 350

Location; KOWD
Day. 18 / Time. 06.53 Zulu
* Altimeter: 30.03
* Temperature: 05° c. 41°f.
* Wind from: 290° Speed 08 kn.
Dewpoint: -02° c.
Visibility: 10 Statute Miles.
Clouds: Few 5000 ft.

KOWD 180653Z AUTO 29008KT 250V320 10SM FEW050 05/M02 A3003 RMK AO2 PK WND 32027/0607 RAB05E17 SLP167 P0000 T00501017


Wind From 290°
Speed 08 kn.

 
 
jpsmedia.com for Web Design worldairports.se 2018   terms of use